NCAR-RAP Real-Time Weather Data

Output produced by METARs form (10 April 2020  05:04 UTC)
found at http://weather.rap.ucar.edu/surface/
 
KSLC 100454Z 12006KT 10SM SCT045 SCT180 10/03 A3008 RMK AO2 SLP158 T01000033
KSLC 100354Z 19006KT 10SM FEW100 FEW160 SCT180 11/03 A3007 RMK AO2 SLP157 T01060033
KSLC 100254Z 15008KT 10SM FEW050 SCT160 11/03 A3005 RMK AO2 SLP154 60000 T01110033 53006
KSLC 100154Z 17005KT 10SM FEW035 SCT075 BKN100 12/04 A3001 RMK AO2 SLP142 VIRGA T01170039
KSLC 100054Z 18013KT 10SM SCT060 BKN080 BKN100 12/04 A3002 RMK AO2 RAB2358E20B39E48 SLP147 VCSH P0000 T01220039
KSLC 092354Z 15013KT 10SM SCT070 BKN085 BKN140 13/04 A3003 RMK AO2 SLP148 SH E-S AND DSNT W T01280039 10200 20128 51020
KSLC 092254Z 17007KT 10SM FEW060 BKN100 BKN150 14/03 A3000 RMK AO2 PK WND 19035/2200 WSHFT 2141 SLP134 SH DSNT SE-SW T01440028
KSLC 092201Z COR 20029G35KT 9SM FEW012 BKN075 BKN110 16/03 A2999 RMK AO2 PK WND 19035/2200 WSHFT 2141 CB DSNT S-SW SH DSNT SE AND SW T01560033
KSLC 092154Z 16019G31KT 8SM FEW012 BKN075 BKN110 16/04 A3000 RMK AO2 PK WND 19031/2141 WSHFT 2140 SLP132 CB DSNT S-SW SH DSNT SE AND SW T01610039
KSLC 092054Z 27012KT 10SM FEW085 SCT120 BKN230 19/01 A2996 RMK AO2 SLP115 VIRGA CB DSNT SE-S ACSL DSNT NE T01890006 56005
KSLC 091954Z 27012G17KT 10SM FEW085 SCT120 BKN200 19/01 A2997 RMK AO2 SLP117 VIRGA T01890006
KSLC 091854Z VRB03KT 10SM FEW085 SCT120 SCT200 18/01 A2997 RMK AO2 SLP119 VIRGA ACSL DSNT SW T01830006
KSLC 091754Z 28007KT 10SM FEW080 SCT120 17/01 A2998 RMK AO2 SLP124 VIRGA ACSL DSNT SE T01720011 10172 20061 56003
KSLC 091654Z 32008KT 10SM SCT120 16/01 A2998 RMK AO2 SLP123 VIRGA T01610011
KSLC 091554Z 31005KT 10SM SCT120 14/01 A2998 RMK AO2 SLP123 VIRGA T01440011
KSLC 091454Z 35009KT 10SM SCT110 10/02 A2999 RMK AO2 SLP132 VIRGA T01000022 53012
KSLC 091354Z 09004KT 10SM FEW075 SCT110 10/01 A2998 RMK AO2 SLP125 VIRGA T01000011
KSLC 091254Z 00000KT 10SM FEW060 SCT120 07/01 A2995 RMK AO2 SLP115 T00720011
KSLC 091154Z 00000KT 10SM FEW060 SCT120 08/01 A2995 RMK AO2 SLP112 T00780011 10106 20072 57002
KSLC 091054Z 29003KT 10SM CLR 10/02 A2995 RMK AO2 SLP108 T01000017
KSLC 090954Z 21004KT 10SM CLR 09/01 A2996 RMK AO2 SLP112 T00890006
KSLC 090854Z 32006KT 10SM CLR 10/01 A2996 RMK AO2 SLP110 T01000011 58009
KSLC 090754Z 20003KT 10SM CLR 10/02 A2998 RMK AO2 SLP120 T01000017